Time;durP1;ratioP1;P1;durP2;ratioP2;P2;SDS_P1;SDS_P2;PMS_P1;PMS_P2;Temp;Humidity;BMP_temperature;BMP_pressure;BME280_temperature;BME280_humidity;BME280_pressure;Samples;Min_cycle;Max_cycle;Signal;HPM_P1;HPM_P2
2022/10/30 00:00:00;;;;;;;;;;;;;;;;;;5043618;28;5095;-60
2022/10/30 00:02:26;;;;;;;;;;;;;;;;;;5048713;28;5223;-59
2022/10/30 00:04:51;;;;;;;;;;;;;;;;;;5053762;28;5040;-60
2022/10/30 00:07:16;;;;;;;;;;;;;;;;;;5048300;28;1176;-59
2022/10/30 00:09:41;;;;;;;;;;;;;;;;;;5048295;28;5343;-58
2022/10/30 00:12:07;;;;;;;;;;;;;;;;;;5030358;28;4451;-59
2022/10/30 00:14:32;;;;;;;;;;;;;;;;;;5029205;28;5115;-60
2022/10/30 00:16:58;;;;;;;;;;;;;;;;;;5047917;28;5053;-60
2022/10/30 00:19:23;;;;;;;;;;;;;;;;;;5048955;28;1136;-59
2022/10/30 00:21:48;;;;;;;;;;;;;;;;;;5048277;28;5710;-59
2022/10/30 00:24:14;;;;;;;;;;;;;;;;;;5030381;28;5633;-59
2022/10/30 00:26:39;;;;;;;;;;;;;;;;;;5048070;28;5062;-59
2022/10/30 00:29:04;;;;;;;;;;;;;;;;;;5042000;28;5075;-59
2022/10/30 00:31:30;;;;;;;;;;;;;;;;;;5035126;28;4623;-57
2022/10/30 00:33:55;;;;;;;;;;;;;;;;;;5048640;28;1287;-60
2022/10/30 00:36:20;;;;;;;;;;;;;;;;;;5047971;28;4997;-60
2022/10/30 00:38:45;;;;;;;;;;;;;;;;;;5048173;28;5559;-60
2022/10/30 00:41:14;;;;;;;;;;;;;;;;;;5048068;28;5519;-60
2022/10/30 00:43:40;;;;;;;;;;;;;;;;;;5047800;28;5111;-61
2022/10/30 00:46:06;;;;;;;;;;;;;;;;;;5029239;28;3134;-60
2022/10/30 00:48:31;;;;;;;;;;;;;;;;;;5010242;28;5048;-61
2022/10/30 00:50:57;;;;;;;;;;;;;;;;;;5030484;28;5096;-59
2022/10/30 00:53:22;;;;;;;;;;;;;;;;;;5046466;28;5773;-60
2022/10/30 00:55:51;;;;;;;;;;;;;;;;;;5047892;28;5031;-59
2022/10/30 00:58:17;;;;;;;;;;;;;;;;;;5024574;28;2874;-59
2022/10/30 01:00:45;;;;;;;;;;;;;;;;;;5035166;28;5017;-59
2022/10/30 01:03:10;;;;;;;;;;;;;;;;;;5016614;28;1870;-60
2022/10/30 01:05:36;;;;;;;;;;;;;;;;;;5051376;28;2787;-60
2022/10/30 01:08:01;;;;;;;;;;;;;;;;;;5027086;28;1222;-61
2022/10/30 01:10:26;;;;;;;;;;;;;;;;;;5050598;28;4680;-61
2022/10/30 01:12:52;;;;;;;;;;;;;;;;;;5050118;28;3382;-60
2022/10/30 01:15:17;;;;;;;;;;;;;;;;;;5034462;28;2903;-61
2022/10/30 01:17:56;;;;;;;;;;;;;;;;;;5025443;28;3223;-61
2022/10/30 01:20:21;;;;;;;;;;;;;;;;;;5034120;28;2663;-61
2022/10/30 01:22:55;;;;;;;;;;;;;;;;;;5046790;28;3145;-60
2022/10/30 01:25:34;;;;;;;;;;;;;;;;;;5043781;28;3138;-60
2022/10/30 01:28:08;;;;;;;;;;;;;;;;;;5032629;28;1149;-61
2022/10/30 01:30:34;;;;;;;;;;;;;;;;;;5050746;28;1744;-61
2022/10/30 01:33:11;;;;;;;;;;;;;;;;;;5051603;28;1531;-61
2022/10/30 01:35:43;;;;;;;;;;;;;;;;;;5027719;28;1317;-61
2022/10/30 01:38:18;;;;;;;;;;;;;;;;;;5014052;28;1910;-61
2022/10/30 01:40:44;;;;;;;;;;;;;;;;;;5012454;28;3215;-60
2022/10/30 01:43:09;;;;;;;;;;;;;;;;;;5014014;28;1049;-59
2022/10/30 01:45:34;;;;;;;;;;;;;;;;;;5031811;28;1051;-60
2022/10/30 01:48:18;;;;;;;;;;;;;;;;;;5031895;28;1158;-59
2022/10/30 01:50:43;;;;;;;;;;;;;;;;;;5031662;28;1152;-60
2022/10/30 01:53:14;;;;;;;;;;;;;;;;;;5025438;28;3085;-61
2022/10/30 01:55:53;;;;;;;;;;;;;;;;;;5031182;28;1121;-59
2022/10/30 01:58:22;;;;;;;;;;;;;;;;;;5003673;28;2023;-59
2022/10/30 02:00:48;;;;;;;;;;;;;;;;;;5010216;28;1715;-60
2022/10/30 02:03:13;;;;;;;;;;;;;;;;;;5017750;28;5165;-61
2022/10/30 02:05:40;;;;;;;;;;;;;;;;;;5012455;28;4971;-60
2022/10/30 02:08:05;;;;;;;;;;;;;;;;;;5030245;28;5000;-61
2022/10/30 02:10:30;;;;;;;;;;;;;;;;;;5012676;28;5074;-59
2022/10/30 02:12:55;;;;;;;;;;;;;;;;;;5012907;28;1232;-61
2022/10/30 02:15:21;;;;;;;;;;;;;;;;;;5013251;28;4998;-60
2022/10/30 02:17:46;;;;;;;;;;;;;;;;;;4997169;28;5079;-61
2022/10/30 02:20:16;;;;;;;;;;;;;;;;;;5027554;28;4963;-61
2022/10/30 02:22:41;;;;;;;;;;;;;;;;;;5030699;28;4992;-60
2022/10/30 02:25:06;;;;;;;;;;;;;;;;;;5029740;28;1082;-60
2022/10/30 02:27:32;;;;;;;;;;;;;;;;;;5008689;28;5120;-61
2022/10/30 02:29:59;;;;;;;;;;;;;;;;;;5023344;28;5057;-60
2022/10/30 02:32:24;;;;;;;;;;;;;;;;;;5030048;28;5601;-60
2022/10/30 02:34:50;;;;;;;;;;;;;;;;;;5029825;28;4478;-59
2022/10/30 02:37:15;;;;;;;;;;;;;;;;;;5029877;28;2068;-59
2022/10/30 02:39:40;;;;;;;;;;;;;;;;;;5049558;28;4836;-60
2022/10/30 02:42:05;;;;;;;;;;;;;;;;;;5049612;28;4796;-60
2022/10/30 02:44:31;;;;;;;;;;;;;;;;;;5047760;28;5160;-60
2022/10/30 02:46:56;;;;;;;;;;;;;;;;;;5047562;28;5085;-60
2022/10/30 02:49:21;;;;;;;;;;;;;;;;;;5050148;28;2218;-61
2022/10/30 02:51:46;;;;;;;;;;;;;;;;;;5042800;28;4748;-61
2022/10/30 02:54:12;;;;;;;;;;;;;;;;;;5044195;28;5317;-61
2022/10/30 02:56:39;;;;;;;;;;;;;;;;;;5047286;28;4699;-61
2022/10/30 02:59:04;;;;;;;;;;;;;;;;;;5051673;28;4646;-61
2022/10/30 03:01:29;;;;;;;;;;;;;;;;;;5050439;28;1149;-61
2022/10/30 03:03:55;;;;;;;;;;;;;;;;;;5029801;28;5029;-61
2022/10/30 03:06:20;;;;;;;;;;;;;;;;;;5049239;28;4457;-60
2022/10/30 03:08:45;;;;;;;;;;;;;;;;;;5048380;28;5092;-60
2022/10/30 03:11:14;;;;;;;;;;;;;;;;;;5047554;28;4887;-60
2022/10/30 03:13:39;;;;;;;;;;;;;;;;;;5042483;28;4704;-60
2022/10/30 03:16:09;;;;;;;;;;;;;;;;;;5031092;28;1280;-60
2022/10/30 03:18:34;;;;;;;;;;;;;;;;;;5048166;28;5090;-61
2022/10/30 03:21:00;;;;;;;;;;;;;;;;;;5048362;28;5006;-61
2022/10/30 03:23:25;;;;;;;;;;;;;;;;;;5028759;28;5020;-61
2022/10/30 03:25:52;;;;;;;;;;;;;;;;;;5048693;28;5104;-61
2022/10/30 03:28:17;;;;;;;;;;;;;;;;;;5044819;28;1098;-61
2022/10/30 03:30:42;;;;;;;;;;;;;;;;;;5029441;28;4770;-61
2022/10/30 03:33:07;;;;;;;;;;;;;;;;;;5047536;28;5248;-61
2022/10/30 03:35:34;;;;;;;;;;;;;;;;;;5047367;28;4882;-59
2022/10/30 03:37:59;;;;;;;;;;;;;;;;;;5042960;28;5055;-60
2022/10/30 03:40:24;;;;;;;;;;;;;;;;;;5049840;28;1185;-59
2022/10/30 03:42:50;;;;;;;;;;;;;;;;;;5026743;28;5031;-60
2022/10/30 03:45:15;;;;;;;;;;;;;;;;;;5030666;28;5067;-60
2022/10/30 03:47:40;;;;;;;;;;;;;;;;;;5043512;28;4493;-60
2022/10/30 03:50:06;;;;;;;;;;;;;;;;;;5045786;28;5270;-60
2022/10/30 03:52:31;;;;;;;;;;;;;;;;;;5030825;28;4662;-60
2022/10/30 03:54:56;;;;;;;;;;;;;;;;;;5013727;28;1411;-61
2022/10/30 03:57:22;;;;;;;;;;;;;;;;;;5052673;28;4991;-61
2022/10/30 03:59:47;;;;;;;;;;;;;;;;;;5045155;28;5059;-61
2022/10/30 04:02:12;;;;;;;;;;;;;;;;;;5048360;28;6035;-59
2022/10/30 04:04:37;;;;;;;;;;;;;;;;;;5045005;28;5009;-60
2022/10/30 04:07:03;;;;;;;;;;;;;;;;;;5048848;28;1142;-61
2022/10/30 04:09:28;;;;;;;;;;;;;;;;;;5047825;28;4492;-61
2022/10/30 04:11:53;;;;;;;;;;;;;;;;;;5047964;28;5420;-61
2022/10/30 04:14:18;;;;;;;;;;;;;;;;;;5047512;28;4942;-62
2022/10/30 04:16:44;;;;;;;;;;;;;;;;;;5044490;28;5206;-60
2022/10/30 04:19:09;;;;;;;;;;;;;;;;;;5049191;28;1149;-60
2022/10/30 04:21:34;;;;;;;;;;;;;;;;;;5048078;28;5094;-60
2022/10/30 04:23:59;;;;;;;;;;;;;;;;;;5047437;28;5014;-60
2022/10/30 04:26:25;;;;;;;;;;;;;;;;;;5048113;28;4933;-60
2022/10/30 04:28:50;;;;;;;;;;;;;;;;;;5046797;28;5296;-60
2022/10/30 04:31:15;;;;;;;;;;;;;;;;;;5046579;28;3091;-60
2022/10/30 04:33:40;;;;;;;;;;;;;;;;;;5048359;28;5269;-60
2022/10/30 04:36:06;;;;;;;;;;;;;;;;;;5047115;28;5001;-61
2022/10/30 04:38:31;;;;;;;;;;;;;;;;;;5047553;28;5116;-61
2022/10/30 04:40:56;;;;;;;;;;;;;;;;;;5047258;28;5058;-60
2022/10/30 04:43:22;;;;;;;;;;;;;;;;;;5048841;28;1288;-60
2022/10/30 04:45:47;;;;;;;;;;;;;;;;;;5044946;28;4895;-60
2022/10/30 04:48:13;;;;;;;;;;;;;;;;;;5047745;28;5023;-61
2022/10/30 04:50:38;;;;;;;;;;;;;;;;;;5034046;28;4955;-61
2022/10/30 04:53:04;;;;;;;;;;;;;;;;;;5029962;28;4575;-61
2022/10/30 04:55:30;;;;;;;;;;;;;;;;;;5041322;28;1565;-60
2022/10/30 04:57:56;;;;;;;;;;;;;;;;;;5047081;28;5246;-60
2022/10/30 05:00:21;;;;;;;;;;;;;;;;;;5038719;28;5064;-61
2022/10/30 05:02:46;;;;;;;;;;;;;;;;;;5045865;28;5014;-60
2022/10/30 05:05:12;;;;;;;;;;;;;;;;;;5047812;28;5112;-60
2022/10/30 05:07:37;;;;;;;;;;;;;;;;;;5047270;28;5076;-60
2022/10/30 05:10:02;;;;;;;;;;;;;;;;;;5029934;28;4781;-61
2022/10/30 05:12:27;;;;;;;;;;;;;;;;;;5047036;28;4473;-61
2022/10/30 05:14:53;;;;;;;;;;;;;;;;;;5045920;28;4882;-61
2022/10/30 05:17:18;;;;;;;;;;;;;;;;;;5048077;28;5256;-61
2022/10/30 05:19:43;;;;;;;;;;;;;;;;;;5047848;28;5128;-61
2022/10/30 05:22:09;;;;;;;;;;;;;;;;;;5048795;28;1186;-61
2022/10/30 05:24:34;;;;;;;;;;;;;;;;;;5030141;28;4726;-61
2022/10/30 05:27:00;;;;;;;;;;;;;;;;;;5053971;28;5090;-61
2022/10/30 05:29:25;;;;;;;;;;;;;;;;;;5041537;28;4560;-62
2022/10/30 05:31:50;;;;;;;;;;;;;;;;;;5046857;28;4650;-61
2022/10/30 05:34:15;;;;;;;;;;;;;;;;;;5048030;28;1245;-59
2022/10/30 05:36:40;;;;;;;;;;;;;;;;;;5046001;28;4460;-59
2022/10/30 05:39:12;;;;;;;;;;;;;;;;;;5029211;28;5686;-60
2022/10/30 05:41:44;;;;;;;;;;;;;;;;;;5047012;28;5192;-60
2022/10/30 05:44:09;;;;;;;;;;;;;;;;;;5046038;28;4491;-60
2022/10/30 05:46:35;;;;;;;;;;;;;;;;;;5044609;28;5061;-60
2022/10/30 05:49:00;;;;;;;;;;;;;;;;;;5049382;28;1108;-61
2022/10/30 05:51:25;;;;;;;;;;;;;;;;;;5039564;28;4399;-60
2022/10/30 05:53:50;;;;;;;;;;;;;;;;;;5049485;28;4951;-60
2022/10/30 05:56:16;;;;;;;;;;;;;;;;;;5031635;28;5553;-60
2022/10/30 05:58:41;;;;;;;;;;;;;;;;;;5032408;28;5153;-60
2022/10/30 06:01:06;;;;;;;;;;;;;;;;;;5040033;28;1205;-60
2022/10/30 06:03:32;;;;;;;;;;;;;;;;;;5045967;28;5086;-60
2022/10/30 06:05:57;;;;;;;;;;;;;;;;;;5049655;28;5026;-61
2022/10/30 06:08:22;;;;;;;;;;;;;;;;;;5032481;28;5270;-60
2022/10/30 06:10:47;;;;;;;;;;;;;;;;;;5046484;28;4733;-60
2022/10/30 06:13:13;;;;;;;;;;;;;;;;;;5050732;28;1113;-61
2022/10/30 06:15:38;;;;;;;;;;;;;;;;;;5047198;28;4928;-60
2022/10/30 06:18:03;;;;;;;;;;;;;;;;;;5050333;28;4468;-64
2022/10/30 06:20:28;;;;;;;;;;;;;;;;;;5032360;28;5035;-60
2022/10/30 06:22:57;;;;;;;;;;;;;;;;;;5031787;28;5088;-60
2022/10/30 06:25:23;;;;;;;;;;;;;;;;;;5050859;28;1077;-61
2022/10/30 06:27:48;;;;;;;;;;;;;;;;;;5050245;28;4966;-60
2022/10/30 06:30:13;;;;;;;;;;;;;;;;;;5044154;28;5031;-60
2022/10/30 06:32:38;;;;;;;;;;;;;;;;;;5050251;28;5041;-60
2022/10/30 06:35:04;;;;;;;;;;;;;;;;;;5050033;28;5178;-60
2022/10/30 06:37:29;;;;;;;;;;;;;;;;;;5050271;28;1914;-60
2022/10/30 06:39:54;;;;;;;;;;;;;;;;;;5049979;28;5284;-60
2022/10/30 06:42:20;;;;;;;;;;;;;;;;;;5047736;28;5071;-60
2022/10/30 06:44:45;;;;;;;;;;;;;;;;;;5046299;28;5021;-60
2022/10/30 06:47:10;;;;;;;;;;;;;;;;;;5046651;28;5084;-60
2022/10/30 06:49:35;;;;;;;;;;;;;;;;;;5037247;28;4573;-58
2022/10/30 06:52:00;;;;;;;;;;;;;;;;;;5042806;28;2805;-60
2022/10/30 06:54:26;;;;;;;;;;;;;;;;;;5046911;28;4830;-59
2022/10/30 06:56:51;;;;;;;;;;;;;;;;;;5046635;28;5117;-59
2022/10/30 06:59:16;;;;;;;;;;;;;;;;;;5042028;28;5140;-59
2022/10/30 07:01:42;;;;;;;;;;;;;;;;;;5043502;28;4990;-61
2022/10/30 07:04:07;;;;;;;;;;;;;;;;;;5045918;28;1019;-61
2022/10/30 07:06:32;;;;;;;;;;;;;;;;;;5048707;28;4920;-61
2022/10/30 07:08:57;;;;;;;;;;;;;;;;;;5039163;28;5195;-61
2022/10/30 07:11:23;;;;;;;;;;;;;;;;;;5047413;28;4819;-61
2022/10/30 07:13:48;;;;;;;;;;;;;;;;;;5029603;28;5109;-61
2022/10/30 07:16:13;;;;;;;;;;;;;;;;;;5046882;28;3106;-61
2022/10/30 07:18:38;;;;;;;;;;;;;;;;;;5055063;28;4789;-61
2022/10/30 07:21:04;;;;;;;;;;;;;;;;;;5049320;28;4936;-61
2022/10/30 07:23:29;;;;;;;;;;;;;;;;;;5048936;28;5060;-61
2022/10/30 07:25:54;;;;;;;;;;;;;;;;;;5047110;28;5092;-61
2022/10/30 07:28:19;;;;;;;;;;;;;;;;;;5026019;28;1198;-61
2022/10/30 07:30:45;;;;;;;;;;;;;;;;;;5044215;28;5055;-59
2022/10/30 07:33:10;;;;;;;;;;;;;;;;;;5048633;28;5101;-61
2022/10/30 07:35:35;;;;;;;;;;;;;;;;;;5048822;28;5039;-61
2022/10/30 07:38:04;;;;;;;;;;;;;;;;;;5029723;28;5062;-61
2022/10/30 07:40:29;;;;;;;;;;;;;;;;;;5028575;28;3147;-61
2022/10/30 07:42:55;;;;;;;;;;;;;;;;;;5027134;28;4430;-61
2022/10/30 07:45:20;;;;;;;;;;;;;;;;;;5028153;28;5185;-61
2022/10/30 07:47:45;;;;;;;;;;;;;;;;;;5010935;28;5202;-61
2022/10/30 07:50:11;;;;;;;;;;;;;;;;;;5034164;28;4953;-61
2022/10/30 07:52:36;;;;;;;;;;;;;;;;;;5028942;28;5633;-61
2022/10/30 07:55:01;;;;;;;;;;;;;;;;;;5029274;28;1102;-61
2022/10/30 07:57:29;;;;;;;;;;;;;;;;;;5028196;28;5031;-60
2022/10/30 07:59:54;;;;;;;;;;;;;;;;;;5016188;28;5136;-61
2022/10/30 08:02:20;;;;;;;;;;;;;;;;;;5027602;28;5062;-61
2022/10/30 08:04:45;;;;;;;;;;;;;;;;;;5026766;28;5095;-61
2022/10/30 08:07:10;;;;;;;;;;;;;;;;;;5027286;28;2948;-61
2022/10/30 08:09:35;;;;;;;;;;;;;;;;;;5018172;28;5293;-61
2022/10/30 08:12:00;;;;;;;;;;;;;;;;;;5022554;28;4812;-61
2022/10/30 08:14:26;;;;;;;;;;;;;;;;;;5025168;28;5083;-61
2022/10/30 08:16:51;;;;;;;;;;;;;;;;;;5021541;28;5379;-61
2022/10/30 08:19:16;;;;;;;;;;;;;;;;;;5028828;28;1248;-61
2022/10/30 08:21:41;;;;;;;;;;;;;;;;;;5028103;28;5274;-61
2022/10/30 08:24:07;;;;;;;;;;;;;;;;;;5030512;28;5066;-61
2022/10/30 08:26:32;;;;;;;;;;;;;;;;;;5019815;28;4635;-62
2022/10/30 08:28:57;;;;;;;;;;;;;;;;;;5020618;28;4504;-60
2022/10/30 08:31:23;;;;;;;;;;;;;;;;;;5026419;28;3240;-60
2022/10/30 08:33:48;;;;;;;;;;;;;;;;;;5027582;28;5002;-60
2022/10/30 08:36:13;;;;;;;;;;;;;;;;;;5013331;28;5155;-60
2022/10/30 08:38:38;;;;;;;;;;;;;;;;;;5031232;28;5006;-59
2022/10/30 08:41:04;;;;;;;;;;;;;;;;;;5021926;28;5123;-62
2022/10/30 08:43:29;;;;;;;;;;;;;;;;;;5020098;28;3133;-59
2022/10/30 08:45:56;;;;;;;;;;;;;;;;;;5018609;28;4391;-60
2022/10/30 08:48:21;;;;;;;;;;;;;;;;;;5024478;28;4724;-62
2022/10/30 08:50:46;;;;;;;;;;;;;;;;;;5021094;28;5077;-59
2022/10/30 08:53:12;;;;;;;;;;;;;;;;;;5016458;28;5255;-60
2022/10/30 08:55:38;;;;;;;;;;;;;;;;;;5028279;28;5684;-59
2022/10/30 08:58:03;;;;;;;;;;;;;;;;;;5024810;28;2713;-59
2022/10/30 09:00:28;;;;;;;;;;;;;;;;;;5022077;28;4506;-60
2022/10/30 09:02:54;;;;;;;;;;;;;;;;;;5032720;28;4822;-59
2022/10/30 09:05:19;;;;;;;;;;;;;;;;;;5029554;28;5145;-59
2022/10/30 09:07:44;;;;;;;;;;;;;;;;;;5027128;28;5090;-59
2022/10/30 09:10:10;;;;;;;;;;;;;;;;;;5021275;28;4506;-59
2022/10/30 09:12:35;;;;;;;;;;;;;;;;;;5031321;28;5003;-60
2022/10/30 09:15:00;;;;;;;;;;;;;;;;;;5017553;28;5041;-60
2022/10/30 09:17:26;;;;;;;;;;;;;;;;;;5015263;28;5989;-59
2022/10/30 09:19:51;;;;;;;;;;;;;;;;;;5017305;28;5060;-60
2022/10/30 09:22:16;;;;;;;;;;;;;;;;;;5030352;28;1287;-60
2022/10/30 09:24:41;;;;;;;;;;;;;;;;;;5030213;28;5131;-60
2022/10/30 09:27:07;;;;;;;;;;;;;;;;;;5039303;28;4512;-62
2022/10/30 09:29:32;;;;;;;;;;;;;;;;;;5042524;28;4601;-60
2022/10/30 09:31:57;;;;;;;;;;;;;;;;;;5043828;28;5714;-60
2022/10/30 09:34:23;;;;;;;;;;;;;;;;;;5043190;28;3026;-60
2022/10/30 09:36:48;;;;;;;;;;;;;;;;;;5031821;28;5087;-60
2022/10/30 09:39:13;;;;;;;;;;;;;;;;;;5055864;28;4930;-59
2022/10/30 09:41:58;;;;;;;;;;;;;;;;;;5055166;28;5065;-60
2022/10/30 09:44:26;;;;;;;;;;;;;;;;;;5039778;28;4999;-63
2022/10/30 09:46:54;;;;;;;;;;;;;;;;;;5041340;28;4664;-64
2022/10/30 09:49:40;;;;;;;;;;;;;;;;;;5037364;28;3106;-60
2022/10/30 09:52:31;;;;;;;;;;;;;;;;;;5023444;28;4778;-59
2022/10/30 09:55:12;;;;;;;;;;;;;;;;;;4991373;28;5527;-59
2022/10/30 09:57:41;;;;;;;;;;;;;;;;;;5046331;28;4595;-60
2022/10/30 10:00:10;;;;;;;;;;;;;;;;;;5022471;28;5147;-65
2022/10/30 10:02:36;;;;;;;;;;;;;;;;;;5031245;28;5050;-61
2022/10/30 10:05:06;;;;;;;;;;;;;;;;;;5036281;28;5153;-64
2022/10/30 10:07:32;;;;;;;;;;;;;;;;;;5013629;28;5079;-64
2022/10/30 10:10:08;;;;;;;;;;;;;;;;;;5036233;28;4493;-59
2022/10/30 10:12:33;;;;;;;;;;;;;;;;;;5010046;28;5097;-60
2022/10/30 10:14:59;;;;;;;;;;;;;;;;;;5035435;28;4632;-58
2022/10/30 10:17:27;;;;;;;;;;;;;;;;;;5049304;28;5375;-60
2022/10/30 10:19:58;;;;;;;;;;;;;;;;;;5011516;28;5153;-59
2022/10/30 10:22:33;;;;;;;;;;;;;;;;;;5024260;28;5219;-58
2022/10/30 10:24:58;;;;;;;;;;;;;;;;;;5021099;28;3259;-59
2022/10/30 10:27:42;;;;;;;;;;;;;;;;;;5033210;28;5001;-58
2022/10/30 10:30:13;;;;;;;;;;;;;;;;;;5039030;28;4899;-57
2022/10/30 10:35:56;;;;;;;;;;;;;;;;;;5055962;28;4563;-57
2022/10/30 10:38:47;;;;;;;;;;;;;;;;;;5039593;28;4611;-57
2022/10/30 10:41:17;;;;;;;;;;;;;;;;;;5034211;28;4892;-57
2022/10/30 10:43:57;;;;;;;;;;;;;;;;;;5023251;28;5179;-57
2022/10/30 10:46:26;;;;;;;;;;;;;;;;;;5013573;28;1032;-58
2022/10/30 10:48:57;;;;;;;;;;;;;;;;;;5031483;28;4756;-57
2022/10/30 10:51:31;;;;;;;;;;;;;;;;;;5029621;28;5112;-57
2022/10/30 10:54:00;;;;;;;;;;;;;;;;;;5016717;28;5147;-58
2022/10/30 10:56:26;;;;;;;;;;;;;;;;;;5013368;28;4955;-58
2022/10/30 10:58:55;;;;;;;;;;;;;;;;;;5013279;28;5075;-58
2022/10/30 11:01:21;;;;;;;;;;;;;;;;;;5008652;28;1197;-57
2022/10/30 11:04:01;;;;;;;;;;;;;;;;;;5009080;28;5192;-58
2022/10/30 11:06:28;;;;;;;;;;;;;;;;;;5009463;28;4450;-58
2022/10/30 11:09:10;;;;;;;;;;;;;;;;;;5026500;28;5093;-58
2022/10/30 11:11:36;;;;;;;;;;;;;;;;;;5006680;28;5087;-59
2022/10/30 11:14:01;;;;;;;;;;;;;;;;;;5006969;28;5014;-58
2022/10/30 11:16:29;;;;;;;;;;;;;;;;;;5012542;28;3227;-59
2022/10/30 11:18:55;;;;;;;;;;;;;;;;;;5025757;28;4659;-58
2022/10/30 11:21:21;;;;;;;;;;;;;;;;;;5033462;28;4862;-57
2022/10/30 11:23:47;;;;;;;;;;;;;;;;;;5051945;28;5509;-57
2022/10/30 11:26:21;;;;;;;;;;;;;;;;;;5043365;28;5076;-59
2022/10/30 11:28:51;;;;;;;;;;;;;;;;;;5026109;28;5369;-59
2022/10/30 11:31:17;;;;;;;;;;;;;;;;;;5024893;28;3313;-61
2022/10/30 11:33:42;;;;;;;;;;;;;;;;;;4989149;28;5085;-57
2022/10/30 11:36:08;;;;;;;;;;;;;;;;;;5030328;28;4613;-57
2022/10/30 11:38:40;;;;;;;;;;;;;;;;;;5030060;28;4891;-57
2022/10/30 11:41:05;;;;;;;;;;;;;;;;;;5029732;28;4725;-57
2022/10/30 11:43:31;;;;;;;;;;;;;;;;;;5029348;28;5092;-58
2022/10/30 11:45:56;;;;;;;;;;;;;;;;;;5013485;28;1149;-58
2022/10/30 11:48:23;;;;;;;;;;;;;;;;;;5029023;28;4710;-57
2022/10/30 11:50:48;;;;;;;;;;;;;;;;;;5028656;28;5264;-58
2022/10/30 11:53:20;;;;;;;;;;;;;;;;;;5030756;28;5076;-58
2022/10/30 11:55:46;;;;;;;;;;;;;;;;;;4996838;28;4618;-58
2022/10/30 11:58:19;;;;;;;;;;;;;;;;;;5013717;28;1969;-58
2022/10/30 12:00:45;;;;;;;;;;;;;;;;;;4996415;28;4685;-57
2022/10/30 12:03:30;;;;;;;;;;;;;;;;;;5025779;28;5085;-57
2022/10/30 12:06:14;;;;;;;;;;;;;;;;;;5016665;28;4647;-58
2022/10/30 12:08:39;;;;;;;;;;;;;;;;;;5030325;28;5125;-58
2022/10/30 12:11:05;;;;;;;;;;;;;;;;;;5028605;28;5107;-59
2022/10/30 12:13:32;;;;;;;;;;;;;;;;;;5030911;28;1019;-58
2022/10/30 12:16:16;;;;;;;;;;;;;;;;;;5010840;28;5129;-58
2022/10/30 12:18:41;;;;;;;;;;;;;;;;;;5012150;28;5206;-58
2022/10/30 12:21:07;;;;;;;;;;;;;;;;;;5012810;28;4985;-57
2022/10/30 12:23:33;;;;;;;;;;;;;;;;;;5010903;28;4602;-59
2022/10/30 12:25:59;;;;;;;;;;;;;;;;;;5029497;28;5063;-59
2022/10/30 12:28:28;;;;;;;;;;;;;;;;;;5030117;28;1735;-58
2022/10/30 12:30:56;;;;;;;;;;;;;;;;;;5008531;28;4936;-58
2022/10/30 12:33:28;;;;;;;;;;;;;;;;;;5026850;28;5289;-57
2022/10/30 12:36:00;;;;;;;;;;;;;;;;;;5027008;28;4916;-57
2022/10/30 12:38:51;;;;;;;;;;;;;;;;;;5008714;28;5084;-57
2022/10/30 12:41:35;;;;;;;;;;;;;;;;;;5025619;28;4908;-58
2022/10/30 12:44:06;;;;;;;;;;;;;;;;;;5029850;28;5054;-57
2022/10/30 12:46:55;;;;;;;;;;;;;;;;;;5025915;28;4561;-58
2022/10/30 12:49:39;;;;;;;;;;;;;;;;;;4993242;28;1389;-58
2022/10/30 12:52:22;;;;;;;;;;;;;;;;;;5012055;28;5022;-58
2022/10/30 12:54:53;;;;;;;;;;;;;;;;;;5005055;28;5144;-58
2022/10/30 12:57:23;;;;;;;;;;;;;;;;;;5014086;28;4895;-58
2022/10/30 13:00:08;;;;;;;;;;;;;;;;;;5010842;28;4615;-57
2022/10/30 13:02:52;;;;;;;;;;;;;;;;;;5031638;28;5140;-58
2022/10/30 13:05:24;;;;;;;;;;;;;;;;;;5033338;28;2069;-60
2022/10/30 13:08:16;;;;;;;;;;;;;;;;;;5033078;28;4683;-58
2022/10/30 13:11:14;;;;;;;;;;;;;;;;;;5019614;28;5526;-59
2022/10/30 13:13:40;;;;;;;;;;;;;;;;;;4998016;28;4489;-58
2022/10/30 13:16:07;;;;;;;;;;;;;;;;;;5016526;28;1090;-57
2022/10/30 13:18:32;;;;;;;;;;;;;;;;;;5015945;28;4997;-58
2022/10/30 13:21:01;;;;;;;;;;;;;;;;;;4998810;28;5035;-58
2022/10/30 13:23:39;;;;;;;;;;;;;;;;;;5034291;28;4931;-59
2022/10/30 13:26:22;;;;;;;;;;;;;;;;;;5016248;28;4866;-58
2022/10/30 13:28:54;;;;;;;;;;;;;;;;;;5014719;28;5061;-58
2022/10/30 13:31:23;;;;;;;;;;;;;;;;;;5016235;28;1549;-58
2022/10/30 13:34:08;;;;;;;;;;;;;;;;;;5025448;28;4468;-58
2022/10/30 13:36:36;;;;;;;;;;;;;;;;;;4992312;28;4469;-58
2022/10/30 13:39:23;;;;;;;;;;;;;;;;;;5046698;28;5073;-57
2022/10/30 13:42:13;;;;;;;;;;;;;;;;;;5037443;28;4754;-58
2022/10/30 13:44:38;;;;;;;;;;;;;;;;;;5030754;28;5166;-58
2022/10/30 13:47:36;;;;;;;;;;;;;;;;;;5052771;28;5271;-58
2022/10/30 13:50:20;;;;;;;;;;;;;;;;;;5004893;28;5309;-58
2022/10/30 13:52:47;;;;;;;;;;;;;;;;;;5033455;28;5158;-58
2022/10/30 13:55:33;;;;;;;;;;;;;;;;;;5031862;28;1115;-58
2022/10/30 13:58:27;;;;;;;;;;;;;;;;;;5017826;28;5043;-58
2022/10/30 14:00:57;;;;;;;;;;;;;;;;;;5009241;28;5075;-58
2022/10/30 14:03:28;;;;;;;;;;;;;;;;;;5021963;28;4636;-58
2022/10/30 14:05:53;;;;;;;;;;;;;;;;;;5052657;28;4608;-58
2022/10/30 14:08:18;;;;;;;;;;;;;;;;;;5033773;28;5086;-59
2022/10/30 14:10:53;;;;;;;;;;;;;;;;;;5032448;28;4826;-58
2022/10/30 14:13:25;;;;;;;;;;;;;;;;;;5032910;28;1084;-58
2022/10/30 14:15:55;;;;;;;;;;;;;;;;;;5048553;28;4956;-58
2022/10/30 14:18:24;;;;;;;;;;;;;;;;;;5048614;28;4466;-60
2022/10/30 14:20:50;;;;;;;;;;;;;;;;;;5052273;28;5055;-60
2022/10/30 14:23:18;;;;;;;;;;;;;;;;;;5034373;28;4466;-58
2022/10/30 14:25:43;;;;;;;;;;;;;;;;;;5052835;28;5054;-57
2022/10/30 14:28:17;;;;;;;;;;;;;;;;;;5038136;28;1553;-58
2022/10/30 14:30:43;;;;;;;;;;;;;;;;;;5009217;28;5468;-58
2022/10/30 14:33:08;;;;;;;;;;;;;;;;;;5013058;28;5035;-58
2022/10/30 14:39:01;;;;;;;;;;;;;;;;;;5037676;28;4559;-58
2022/10/30 15:02:56;;;;;;;;;;;;;;;;;;5034183;28;5268;-57
2022/10/30 15:14:45;;;;;;;;;;;;;;;;;;5014421;28;5115;-58
2022/10/30 15:20:16;;;;;;;;;;;;;;;;;;5014500;28;4994;-58
2022/10/30 15:22:41;;;;;;;;;;;;;;;;;;5015743;28;4789;-58
2022/10/30 15:25:14;;;;;;;;;;;;;;;;;;4994409;28;2856;-60
2022/10/30 15:27:40;;;;;;;;;;;;;;;;;;5012099;28;4613;-61
2022/10/30 15:30:14;;;;;;;;;;;;;;;;;;5006979;28;4505;-58
2022/10/30 15:32:39;;;;;;;;;;;;;;;;;;5004296;28;4458;-59
2022/10/30 15:35:09;;;;;;;;;;;;;;;;;;5019102;28;4690;-58
2022/10/30 15:37:34;;;;;;;;;;;;;;;;;;5013025;28;4597;-58
2022/10/30 18:45:33;;;;;;;;;;;;;;;;;;4733719;27;8522566;-59
2022/10/30 18:47:59;;;;;;;;;;;;;;;;;;5024300;28;4955;-55
2022/10/30 18:50:24;;;;;;;;;;;;;;;;;;5011805;28;4844;-57
2022/10/30 18:59:29;;;;;;;;;;;;;;;;;;5011917;28;5001;-58
2022/10/30 19:08:00;;;;;;;;;;;;;;;;;;5011699;28;4528;-58
2022/10/30 19:13:28;;;;;;;;;;;;;;;;;;5007141;28;4641;-58
2022/10/30 19:18:56;;;;;;;;;;;;;;;;;;5011521;28;5110;-57
2022/10/30 19:21:23;;;;;;;;;;;;;;;;;;5011024;28;4966;-56
2022/10/30 19:26:51;;;;;;;;;;;;;;;;;;5011263;28;5032;-59
2022/10/30 19:32:19;;;;;;;;;;;;;;;;;;5011382;28;5493;-58
2022/10/30 19:37:47;;;;;;;;;;;;;;;;;;5012048;28;4555;-58
2022/10/30 19:40:18;;;;;;;;;;;;;;;;;;5011164;28;4787;-59
2022/10/30 19:42:50;;;;;;;;;;;;;;;;;;5011252;28;4851;-59
2022/10/30 19:45:16;;;;;;;;;;;;;;;;;;5009588;28;4988;-59
2022/10/30 19:53:58;;;;;;;;;;;;;;;;;;5030667;28;4949;-58
2022/10/30 19:59:48;;;;;;;;;;;;;;;;;;5017541;28;4967;-57
2022/10/30 20:05:34;;;;;;;;;;;;;;;;;;5017683;28;5024;-60
2022/10/30 20:08:02;;;;;;;;;;;;;;;;;;5017490;28;1102;-59
2022/10/30 20:13:31;;;;;;;;;;;;;;;;;;5017144;28;5105;-60
2022/10/30 20:19:00;;;;;;;;;;;;;;;;;;5014072;28;4521;-60
2022/10/30 20:24:28;;;;;;;;;;;;;;;;;;5017187;28;5246;-59
2022/10/30 20:29:56;;;;;;;;;;;;;;;;;;5017664;28;4619;-63
2022/10/30 20:35:24;;;;;;;;;;;;;;;;;;5016775;28;4524;-62
2022/10/30 20:40:52;;;;;;;;;;;;;;;;;;5017369;28;4551;-60
2022/10/30 20:43:18;;;;;;;;;;;;;;;;;;5014396;28;4671;-60
2022/10/30 20:48:46;;;;;;;;;;;;;;;;;;4997158;28;4912;-60
2022/10/30 20:54:14;;;;;;;;;;;;;;;;;;4996316;28;5103;-60
2022/10/30 20:59:42;;;;;;;;;;;;;;;;;;4996426;28;4496;-60
2022/10/30 21:02:25;;;;;;;;;;;;;;;;;;4995551;28;1117;-59
2022/10/30 21:04:51;;;;;;;;;;;;;;;;;;4983241;28;4425;-59
2022/10/30 21:07:16;;;;;;;;;;;;;;;;;;4991956;28;4537;-55
2022/10/30 21:12:44;;;;;;;;;;;;;;;;;;4992148;28;4983;-59
2022/10/30 21:15:27;;;;;;;;;;;;;;;;;;4976280;28;5051;-60
2022/10/30 21:17:52;;;;;;;;;;;;;;;;;;4969598;28;5085;-59
2022/10/30 21:20:18;;;;;;;;;;;;;;;;;;4957475;28;6381;-60
2022/10/30 21:26:02;;;;;;;;;;;;;;;;;;4991450;28;4647;-59
2022/10/30 21:29:02;;;;;;;;;;;;;;;;;;4973606;28;4966;-59
2022/10/30 21:34:30;;;;;;;;;;;;;;;;;;4983683;28;4635;-60
2022/10/30 21:37:08;;;;;;;;;;;;;;;;;;4972380;28;5166;-59
2022/10/30 21:39:40;;;;;;;;;;;;;;;;;;4974901;28;5025;-59
2022/10/30 21:42:12;;;;;;;;;;;;;;;;;;4959151;28;5013;-60
2022/10/30 21:47:52;;;;;;;;;;;;;;;;;;4976201;28;5030;-59
2022/10/30 21:53:20;;;;;;;;;;;;;;;;;;4976293;28;4603;-59
2022/10/30 21:55:45;;;;;;;;;;;;;;;;;;4989445;28;1336;-56
2022/10/30 21:58:11;;;;;;;;;;;;;;;;;;4995298;28;5140;-57
2022/10/30 22:07:09;;;;;;;;;;;;;;;;;;4976009;28;4445;-58
2022/10/30 22:12:37;;;;;;;;;;;;;;;;;;4976055;28;5137;-59
2022/10/30 22:15:03;;;;;;;;;;;;;;;;;;4975531;28;5203;-59
2022/10/30 22:20:31;;;;;;;;;;;;;;;;;;4975595;28;4972;-59
2022/10/30 22:25:59;;;;;;;;;;;;;;;;;;4976550;28;4614;-58
2022/10/30 22:31:27;;;;;;;;;;;;;;;;;;4975932;28;5152;-58
2022/10/30 22:36:55;;;;;;;;;;;;;;;;;;4975708;28;5243;-59
2022/10/30 22:42:45;;;;;;;;;;;;;;;;;;4975833;28;4667;-59